createdAt,value
2019-02-25T00:04:49.801Z,51.00
2019-02-25T00:10:20.140Z,51.20
2019-02-25T00:15:52.962Z,51.40
2019-02-25T00:21:24.525Z,51.70
2019-02-25T00:26:53.854Z,51.60
2019-02-25T00:32:23.239Z,51.80
2019-02-25T00:37:52.638Z,51.90
2019-02-25T00:43:22.009Z,52.10
2019-02-25T00:48:57.286Z,52.20
2019-02-25T00:54:27.097Z,52.50
2019-02-25T00:59:56.442Z,53.20
2019-02-25T01:05:26.031Z,52.60
2019-02-25T01:10:55.406Z,52.70
2019-02-25T01:16:24.714Z,52.80
2019-02-25T01:21:55.058Z,52.90
2019-02-25T01:27:24.458Z,53.00
2019-02-25T01:32:55.780Z,53.20
2019-02-25T01:38:25.194Z,53.30
2019-02-25T01:43:54.622Z,53.40
2019-02-25T01:49:24.007Z,53.50
2019-02-25T01:54:53.359Z,53.60
2019-02-25T02:00:22.656Z,54.10
2019-02-25T02:05:52.130Z,53.80
2019-02-25T02:11:22.554Z,53.80
2019-02-25T02:16:51.989Z,53.90
2019-02-25T02:22:29.757Z,53.80
2019-02-25T02:27:59.148Z,53.90
2019-02-25T02:33:29.002Z,54.10
2019-02-25T02:39:00.388Z,54.00
2019-02-25T02:44:29.721Z,54.10
2019-02-25T02:50:02.167Z,54.20
2019-02-25T02:55:31.554Z,54.20
2019-02-25T03:01:00.923Z,54.30
2019-02-25T03:06:30.314Z,54.40
2019-02-25T03:11:59.612Z,54.40
2019-02-25T03:17:29.079Z,54.40
2019-02-25T03:22:59.477Z,54.40
2019-02-25T03:28:29.234Z,54.50
2019-02-25T03:33:58.552Z,54.50
2019-02-25T03:39:28.109Z,54.60
2019-02-25T03:44:57.527Z,54.70
2019-02-25T03:50:26.997Z,55.40
2019-02-25T03:55:56.487Z,55.00
2019-02-25T04:01:26.030Z,55.10
2019-02-25T04:06:55.688Z,55.20
2019-02-25T04:12:25.026Z,55.00
2019-02-25T04:17:54.369Z,55.20
2019-02-25T04:23:26.774Z,55.20
2019-02-25T04:28:56.123Z,55.30
2019-02-25T04:34:25.539Z,55.40
2019-02-25T04:39:54.930Z,55.40
2019-02-25T04:45:24.339Z,55.40
2019-02-25T04:50:53.756Z,55.50
2019-02-25T04:56:25.294Z,55.70
2019-02-25T05:01:54.339Z,55.70
2019-02-25T05:07:23.957Z,55.80
2019-02-25T05:13:04.167Z,56.00
2019-02-25T05:18:34.442Z,56.00
2019-02-25T05:24:03.908Z,56.00
2019-02-25T05:29:33.327Z,56.10
2019-02-25T05:35:07.541Z,56.20
2019-02-25T05:40:39.210Z,56.30
2019-02-25T05:46:08.865Z,56.30
2019-02-25T05:51:40.717Z,56.40
2019-02-25T05:57:10.550Z,56.50
2019-02-25T06:02:40.276Z,56.50
2019-02-25T06:08:12.048Z,56.60
2019-02-25T06:13:41.782Z,56.80
2019-02-25T06:19:12.228Z,56.70
2019-02-25T06:24:41.955Z,56.60
2019-02-25T06:30:21.621Z,56.70
2019-02-25T06:35:50.930Z,56.70
2019-02-25T06:41:20.367Z,56.70
2019-02-25T06:46:49.868Z,56.80
2019-02-25T06:52:20.076Z,56.70
2019-02-25T06:57:49.761Z,56.80
2019-02-25T07:03:19.143Z,56.80
2019-02-25T07:08:52.829Z,57.40
2019-02-25T07:14:23.785Z,56.80
2019-02-25T07:19:54.797Z,56.80
2019-02-25T07:31:23.336Z,56.80
2019-02-25T07:37:06.216Z,56.80
2019-02-25T07:42:37.278Z,57.00
2019-02-25T07:48:08.388Z,56.90
2019-02-25T07:53:54.486Z,57.00
2019-02-25T07:59:28.421Z,57.10
2019-02-25T08:04:59.424Z,57.20
2019-02-25T08:10:39.795Z,57.20
2019-02-25T08:16:28.552Z,57.30
2019-02-25T08:22:05.310Z,57.20
2019-02-25T08:27:38.918Z,56.90
2019-02-25T08:33:24.695Z,57.00
2019-02-25T08:38:58.441Z,56.90
2019-02-25T08:44:45.440Z,56.70
2019-02-25T08:50:15.182Z,56.50
2019-02-25T08:55:44.910Z,56.40
2019-02-25T09:01:15.494Z,56.50
2019-02-25T09:06:45.389Z,56.00
2019-02-25T09:12:14.890Z,56.00
2019-02-25T09:17:48.425Z,55.90
2019-02-25T09:23:17.992Z,55.60
2019-02-25T09:28:47.300Z,55.40
2019-02-25T09:34:16.982Z,55.00
2019-02-25T09:39:46.737Z,54.80
2019-02-25T09:45:17.915Z,54.80
2019-02-25T09:50:47.631Z,54.40
2019-02-25T09:56:17.000Z,54.10
2019-02-25T10:01:46.888Z,53.90
2019-02-25T10:07:16.352Z,53.30
2019-02-25T10:12:46.173Z,53.20
2019-02-25T10:18:15.587Z,52.90
2019-02-25T10:23:45.294Z,52.50
2019-02-25T10:29:14.891Z,52.70
2019-02-25T10:34:44.551Z,52.30
2019-02-25T10:40:20.318Z,52.30
2019-02-25T10:45:48.197Z,52.20
2019-02-25T10:51:17.923Z,52.40
2019-02-25T10:56:51.491Z,52.40
2019-02-25T11:02:20.634Z,52.60
2019-02-25T11:07:50.033Z,51.00
2019-02-25T11:13:19.791Z,50.60
2019-02-25T11:18:50.672Z,50.20
2019-02-25T11:24:22.697Z,50.20
2019-02-25T11:29:51.643Z,49.90
2019-02-25T11:35:21.113Z,50.10
2019-02-25T11:40:50.653Z,50.00
2019-02-25T11:46:22.137Z,49.30
2019-02-25T11:51:51.541Z,49.90
2019-02-25T11:57:21.076Z,49.40
2019-02-25T12:02:51.015Z,49.20
2019-02-25T12:08:20.416Z,49.60
2019-02-25T12:13:53.234Z,49.80
2019-02-25T12:19:42.270Z,49.40
2019-02-25T12:25:26.272Z,49.90
2019-02-25T12:30:57.955Z,50.00
2019-02-25T12:36:27.385Z,49.90
2019-02-25T12:41:56.750Z,49.50
2019-02-25T12:47:26.088Z,49.60
2019-02-25T12:52:55.449Z,49.50
2019-02-25T12:58:24.839Z,49.70
2019-02-25T13:03:54.276Z,49.00
2019-02-25T13:09:23.702Z,49.30
2019-02-25T13:14:53.132Z,48.80
2019-02-25T13:20:22.508Z,49.20
2019-02-25T13:25:53.074Z,49.00
2019-02-25T13:31:24.640Z,47.80
2019-02-25T13:36:54.002Z,46.30
2019-02-25T13:42:23.531Z,46.60
2019-02-25T13:47:52.953Z,47.00
2019-02-25T13:53:22.402Z,47.40
2019-02-25T13:58:51.844Z,46.40
2019-02-25T14:04:21.574Z,44.60
2019-02-25T14:09:51.249Z,42.90
2019-02-25T14:15:25.431Z,41.50
2019-02-25T14:20:54.899Z,39.30
2019-02-25T14:26:24.541Z,38.00
2019-02-25T14:31:53.874Z,36.90
2019-02-25T14:37:23.401Z,35.90
2019-02-25T14:42:54.705Z,35.00
2019-02-25T14:48:25.366Z,34.80
2019-02-25T14:53:55.383Z,34.40
2019-02-25T14:59:24.812Z,34.00
2019-02-25T15:04:54.332Z,33.80
2019-02-25T15:10:26.570Z,34.20
2019-02-25T15:15:55.346Z,34.60
2019-02-25T15:21:24.750Z,34.70
2019-02-25T15:26:57.224Z,34.70
2019-02-25T15:32:25.239Z,34.70
2019-02-25T15:37:55.428Z,34.60
2019-02-25T15:43:29.303Z,34.70
2019-02-25T15:48:57.052Z,35.90
2019-02-25T15:54:28.971Z,37.20
2019-02-25T15:59:57.920Z,38.20
2019-02-25T16:05:29.689Z,39.20
2019-02-25T16:11:00.237Z,40.00
2019-02-25T16:16:29.568Z,40.90
2019-02-25T16:22:00.622Z,41.70
2019-02-25T16:27:30.165Z,42.60
2019-02-25T16:33:01.843Z,43.50
2019-02-25T16:38:32.017Z,44.30
2019-02-25T16:44:04.411Z,45.00
2019-02-25T16:49:33.978Z,45.70
2019-02-25T16:55:06.895Z,46.50
2019-02-25T17:00:37.729Z,47.20
2019-02-25T17:06:09.213Z,47.90
2019-02-25T17:11:46.043Z,48.50
2019-02-25T17:17:16.611Z,49.10
2019-02-25T17:22:46.137Z,49.60
2019-02-25T17:28:17.455Z,50.10
2019-02-25T17:33:49.264Z,50.80
2019-02-25T17:39:19.002Z,51.30
2019-02-25T17:44:48.745Z,52.70
2019-02-25T17:50:22.627Z,53.20
2019-02-25T17:55:53.305Z,53.40
2019-02-25T18:01:27.524Z,53.90
2019-02-25T18:06:56.789Z,54.20
2019-02-25T18:12:29.463Z,54.50
2019-02-25T18:17:57.566Z,54.80
2019-02-25T18:23:26.977Z,55.20
2019-02-25T18:28:56.395Z,55.30
2019-02-25T18:34:27.887Z,55.80
2019-02-25T18:39:57.481Z,56.10
2019-02-25T18:45:27.033Z,56.20
2019-02-25T18:50:58.923Z,56.40
2019-02-25T18:56:27.710Z,56.70
2019-02-25T19:01:57.268Z,57.00
2019-02-25T19:07:27.306Z,57.40
2019-02-25T19:12:59.186Z,57.60
2019-02-25T19:18:29.458Z,57.80
2019-02-25T19:24:03.240Z,58.00
2019-02-25T19:29:32.364Z,58.10
2019-02-25T19:35:04.014Z,58.50
2019-02-25T19:40:32.925Z,58.60
2019-02-25T19:46:04.563Z,58.80
2019-02-25T19:51:34.002Z,59.00
2019-02-25T19:57:03.341Z,59.30
2019-02-25T20:02:34.676Z,59.50
2019-02-25T20:08:03.922Z,59.50
2019-02-25T20:13:33.542Z,59.80
2019-02-25T20:19:04.570Z,59.90
2019-02-25T20:24:34.114Z,60.10
2019-02-25T20:30:05.037Z,60.30
2019-02-25T20:35:35.576Z,60.60
2019-02-25T20:41:05.034Z,60.70
2019-02-25T20:46:35.414Z,61.00
2019-02-25T20:52:05.179Z,61.00
2019-02-25T20:57:36.029Z,61.30
2019-02-25T21:03:05.851Z,61.50
2019-02-25T21:08:39.510Z,61.60
2019-02-25T21:14:09.671Z,61.80
2019-02-25T21:19:40.018Z,62.00
2019-02-25T21:25:12.828Z,62.10
2019-02-25T21:30:44.140Z,62.10
2019-02-25T21:36:14.165Z,62.20
2019-02-25T21:41:45.869Z,62.20
2019-02-25T21:47:15.633Z,62.50
2019-02-25T21:52:45.800Z,62.90
2019-02-25T21:58:18.505Z,62.90
2019-02-25T22:03:50.207Z,63.00
2019-02-25T22:09:35.306Z,63.10
2019-02-25T22:14:52.430Z,63.10
2019-02-25T22:20:24.299Z,63.10
2019-02-25T22:25:52.909Z,63.40
2019-02-25T22:31:22.268Z,63.40
2019-02-25T22:36:53.358Z,63.70
2019-02-25T22:42:24.759Z,63.80
2019-02-25T22:47:53.958Z,64.20
2019-02-25T22:53:24.203Z,64.50
2019-02-25T22:58:56.062Z,64.70
2019-02-25T23:04:26.503Z,64.60
2019-02-25T23:09:55.907Z,64.60
2019-02-25T23:15:27.504Z,64.60
2019-02-25T23:20:59.678Z,64.70
2019-02-25T23:26:27.573Z,64.80
2019-02-25T23:31:56.891Z,64.80
2019-02-25T23:37:26.354Z,64.90
2019-02-25T23:42:57.835Z,65.10
2019-02-25T23:48:31.239Z,65.20
2019-02-25T23:53:58.156Z,65.30
2019-02-25T23:59:27.491Z,65.40
